Overview Statistics Trail Chart Weather Telemetry Raw packets
 

This is the latest recevied telemetry packets stored in our database for station/object DN9WHV-10. If no packets are shown the sender has not sent any telemetry packets the latest 10 day(s).

Telemetry packets is used to share measurements like repeteater parameters, battery voltage, radiation readings (or any other measurements).

<< 1 2 3 4 >>
Time Press* Temp.in* Hum* QNH* Temp.out*
1788259740 1017.5 hPa 18.7 C deg 0 % 1018.3 hPa 0 C deg
1788257919 1017 hPa 22.9 C deg 0 % 1017.8 hPa 0 C deg
1788257886 1017 hPa 22.9 C deg 0 % 1017.8 hPa 0 C deg
1788256050 1016.7 hPa 23.3 C deg 0 % 1017.5 hPa 0 C deg
1788254219 1016.8 hPa 20.4 C deg 0 % 1017.6 hPa 0 C deg
1788252392 1016.6 hPa 22 C deg 0 % 1017.5 hPa 0 C deg
1788250559 1016.5 hPa 20.4 C deg 0 % 1017.3 hPa 0 C deg
1788248729 1016.1 hPa 24.2 C deg 0 % 1016.9 hPa 0 C deg
1788246902 1016.2 hPa 20.6 C deg 0 % 1017 hPa 0 C deg
1788245068 1016.1 hPa 17.6 C deg 0 % 1016.9 hPa 0 C deg
1788243239 1015.9 hPa 16.5 C deg 0 % 1016.7 hPa 0 C deg
1788241453 1015.8 hPa 16 C deg 0 % 1016.6 hPa 0 C deg
1788239631 1015.5 hPa 15.3 C deg 0 % 1016.4 hPa 0 C deg
1788237768 1015.2 hPa 14.4 C deg 0 % 1016.1 hPa 0 C deg
1788235966 1015 hPa 14.4 C deg 0 % 1015.9 hPa 0 C deg
1788234174 1014.9 hPa 14.7 C deg 0 % 1015.7 hPa 0 C deg
1788232336 1014.7 hPa 15 C deg 0 % 1015.5 hPa 0 C deg
1788228622 1014.6 hPa 15.4 C deg 0 % 1015.4 hPa 0 C deg
1788226796 1014.3 hPa 15.2 C deg 0 % 1015.2 hPa 0 C deg
1788224991 1014.2 hPa 15.4 C deg 0 % 1015 hPa 0 C deg
1788223118 1013.9 hPa 15.3 C deg 0 % 1014.7 hPa 0 C deg
1788221280 1013.6 hPa 15.3 C deg 0 % 1014.5 hPa 0 C deg
1788219449 1013.6 hPa 15.4 C deg 0 % 1014.4 hPa 0 C deg
1788217619 1013.5 hPa 15.5 C deg 0 % 1014.3 hPa 0 C deg
1788215798 1013.2 hPa 15.5 C deg 0 % 1014 hPa 0 C deg
*Used Equation Coefficients:
Press: 0, 1, 0
Temp.in: 0, 1, 0
Hum: 0, 1, 0
QNH: 0, 1, 0
Temp.out: 0, 1, 0

  • The parameter names for the analog channels will be Value1, Value2, Value3 (up to Value5) if station has not sent a PARAM-packet that specifies the parameter names for each analog channel.
  • Each analog value is a decimal number between 000 and 255 (according to APRS specifications). The receiver use the telemetry equation coefficientsto to restore the original sensor values. If no EQNS-packet with equation coefficients is sent we will show the values as is (this corresponds to the equation coefficients a=0, b=1 and c=0).
    The sent equation coefficients is used in the equation: a * value2 + b * value + c.
  • The units for the analog values will not be shown if station has not sent a UNIT-packet specifying what unit's to use.
  • The parameter names for the digital bits will be Bit1, Bit2, Bit3 (up to Bit8) if station has not sent a PARAM-packet that specifies the parameter names for each digital bit.
  • All bit labels will be named "On" if station has not sent a UNIT-packet that specifies the label of each bit.
  • A bit is considered to be On when the bit is 1 if station has not sent a BITS-packet that specifies another "Bit sense" (a BITS-packet specify the state of the bits that match the BIT labels)